createdAt,value
2022-09-04T00:02:12.327Z,13.22
2022-09-04T00:05:12.101Z,13.20
2022-09-04T00:08:25.793Z,13.17
2022-09-04T00:10:56.753Z,13.14
2022-09-04T00:13:41.973Z,13.12
2022-09-04T00:16:17.331Z,13.09
2022-09-04T00:19:02.328Z,13.07
2022-09-04T00:21:56.609Z,13.06
2022-09-04T00:24:55.434Z,13.06
2022-09-04T00:27:30.774Z,13.05
2022-09-04T00:30:05.422Z,13.05
2022-09-04T00:32:49.544Z,13.07
2022-09-04T00:35:51.672Z,13.06
2022-09-04T00:39:00.636Z,13.06
2022-09-04T00:41:58.493Z,13.06
2022-09-04T00:44:52.570Z,13.07
2022-09-04T00:47:51.425Z,13.09
2022-09-04T00:51:15.783Z,13.10
2022-09-04T00:54:10.509Z,13.11
2022-09-04T00:57:35.148Z,13.12
2022-09-04T01:00:15.976Z,13.14
2022-09-04T01:03:01.602Z,13.13
2022-09-04T01:05:47.343Z,13.13
2022-09-04T01:08:56.405Z,13.13
2022-09-04T01:11:43.947Z,13.16
2022-09-04T01:14:49.117Z,13.16
2022-09-04T01:17:43.990Z,13.13
2022-09-04T01:21:15.451Z,13.14
2022-09-04T01:23:48.838Z,13.12
2022-09-04T01:26:48.563Z,13.08
2022-09-04T01:29:24.101Z,13.04
2022-09-04T01:32:07.230Z,13.05
2022-09-04T01:34:48.869Z,13.05
2022-09-04T01:38:22.546Z,13.05
2022-09-04T01:41:11.421Z,13.06
2022-09-04T01:43:40.144Z,13.09
2022-09-04T01:46:35.366Z,13.08
2022-09-04T01:49:35.670Z,13.10
2022-09-04T01:52:36.250Z,13.13
2022-09-04T01:55:36.541Z,13.17
2022-09-04T01:58:09.853Z,13.18
2022-09-04T02:00:49.362Z,13.18
2022-09-04T02:03:51.026Z,13.19
2022-09-04T02:06:51.383Z,13.24
2022-09-04T02:09:50.494Z,13.29
2022-09-04T02:12:33.985Z,13.29
2022-09-04T02:16:14.364Z,13.31
2022-09-04T02:19:09.859Z,13.37
2022-09-04T02:21:44.622Z,13.44
2022-09-04T02:24:26.019Z,13.48
2022-09-04T02:27:20.587Z,13.46
2022-09-04T02:30:10.050Z,13.46
2022-09-04T02:33:20.496Z,13.49
2022-09-04T02:36:51.514Z,13.48
2022-09-04T02:40:18.040Z,13.42
2022-09-04T02:43:28.475Z,13.36
2022-09-04T02:46:49.331Z,13.35
2022-09-04T02:49:48.170Z,13.33
2022-09-04T02:53:18.278Z,13.32
2022-09-04T02:56:31.970Z,13.35
2022-09-04T02:59:29.418Z,13.33
2022-09-04T03:02:06.443Z,13.32
2022-09-04T03:04:41.604Z,13.31
2022-09-04T03:07:23.853Z,13.29
2022-09-04T03:10:18.198Z,13.29
2022-09-04T03:12:52.588Z,13.28
2022-09-04T03:15:50.850Z,13.27
2022-09-04T03:18:36.262Z,13.24
2022-09-04T03:21:19.184Z,13.23
2022-09-04T03:23:55.837Z,13.23
2022-09-04T03:26:32.232Z,13.26
2022-09-04T03:29:11.559Z,13.32
2022-09-04T03:32:31.975Z,13.36
2022-09-04T03:35:54.621Z,13.38
2022-09-04T03:38:48.594Z,13.40
2022-09-04T03:41:34.284Z,13.40
2022-09-04T03:44:52.287Z,13.38
2022-09-04T03:47:52.474Z,13.36
2022-09-04T03:50:58.086Z,13.35
2022-09-04T03:53:34.429Z,13.35
2022-09-04T03:56:55.672Z,13.35
2022-09-04T04:00:08.713Z,13.35
2022-09-04T04:03:14.091Z,13.34
2022-09-04T04:06:23.034Z,13.35
2022-09-04T04:09:24.608Z,13.38
2022-09-04T04:12:16.139Z,13.42
2022-09-04T04:14:56.778Z,13.44
2022-09-04T04:17:42.980Z,13.46
2022-09-04T04:20:45.902Z,13.50
2022-09-04T04:23:36.005Z,13.51
2022-09-04T04:26:21.655Z,13.52
2022-09-04T04:29:15.675Z,13.54
2022-09-04T04:32:11.196Z,13.55
2022-09-04T04:35:03.161Z,13.55
2022-09-04T04:37:49.993Z,13.58
2022-09-04T04:40:51.248Z,13.65
2022-09-04T04:43:43.389Z,13.71
2022-09-04T04:46:26.730Z,13.78
2022-09-04T04:49:33.865Z,13.81
2022-09-04T04:52:21.076Z,13.89
2022-09-04T04:55:21.002Z,13.93
2022-09-04T04:58:00.376Z,13.96
2022-09-04T05:01:09.022Z,14.01
2022-09-04T05:04:29.709Z,14.07
2022-09-04T05:07:10.131Z,14.14
2022-09-04T05:09:53.323Z,14.21
2022-09-04T05:12:51.689Z,14.25
2022-09-04T05:16:07.950Z,14.31
2022-09-04T05:18:48.068Z,14.43
2022-09-04T05:21:47.266Z,14.53
2022-09-04T05:24:48.521Z,14.61
2022-09-04T05:27:45.765Z,14.74
2022-09-04T05:30:32.586Z,14.84
2022-09-04T05:34:08.468Z,14.91
2022-09-04T05:36:51.382Z,15.04
2022-09-04T05:40:14.923Z,15.12
2022-09-04T05:43:19.780Z,15.26
2022-09-04T05:45:53.049Z,15.41
2022-09-04T05:49:01.420Z,15.52
2022-09-04T05:52:09.791Z,15.65
2022-09-04T05:55:21.455Z,15.72
2022-09-04T05:58:28.082Z,15.76
2022-09-04T06:01:28.380Z,15.85
2022-09-04T06:04:50.413Z,16.02
2022-09-04T06:07:34.203Z,16.15
2022-09-04T06:10:46.002Z,16.25
2022-09-04T06:13:28.722Z,16.39
2022-09-04T06:16:02.416Z,16.58
2022-09-04T06:19:00.843Z,16.60
2022-09-04T06:21:31.314Z,16.70
2022-09-04T06:25:09.384Z,16.92
2022-09-04T06:28:05.839Z,17.15
2022-09-04T06:31:12.399Z,17.30
2022-09-04T06:34:04.136Z,17.37
2022-09-04T06:37:10.486Z,17.45
2022-09-04T06:40:33.338Z,17.47
2022-09-04T06:43:41.304Z,17.52
2022-09-04T06:46:38.618Z,17.48
2022-09-04T06:49:47.677Z,17.46
2022-09-04T06:52:55.473Z,17.49
2022-09-04T06:56:23.650Z,17.50
2022-09-04T06:59:44.664Z,17.53
2022-09-04T07:02:37.018Z,17.60
2022-09-04T07:05:24.950Z,17.74
2022-09-04T07:08:24.228Z,17.87
2022-09-04T07:11:37.141Z,17.93
2022-09-04T07:14:38.284Z,17.85
2022-09-04T07:17:17.730Z,17.86
2022-09-04T07:20:07.189Z,17.96
2022-09-04T07:23:04.624Z,18.02
2022-09-04T07:26:10.920Z,17.91
2022-09-04T07:29:26.110Z,17.80
2022-09-04T07:32:17.529Z,17.95
2022-09-04T07:34:52.757Z,18.06
2022-09-04T07:37:58.122Z,18.02
2022-09-04T07:40:47.011Z,17.97
2022-09-04T07:43:43.612Z,17.95
2022-09-04T07:46:32.769Z,17.96
2022-09-04T07:49:09.821Z,18.07
2022-09-04T07:51:54.784Z,18.13
2022-09-04T07:55:02.905Z,18.13
2022-09-04T07:58:03.770Z,18.13
2022-09-04T08:00:48.398Z,18.25
2022-09-04T08:04:01.200Z,18.25
2022-09-04T08:07:11.404Z,18.26
2022-09-04T08:10:12.579Z,18.40
2022-09-04T08:12:49.063Z,18.50
2022-09-04T08:15:23.234Z,18.61
2022-09-04T08:18:15.617Z,18.68
2022-09-04T08:21:11.963Z,18.75
2022-09-04T08:24:28.100Z,18.77
2022-09-04T08:27:36.059Z,18.68
2022-09-04T08:30:14.764Z,18.56
2022-09-04T08:33:03.436Z,18.39
2022-09-04T08:35:55.737Z,18.41
2022-09-04T08:39:04.612Z,18.54
2022-09-04T08:42:05.426Z,18.63
2022-09-04T08:45:30.238Z,18.69
2022-09-04T08:48:35.391Z,18.90
2022-09-04T08:51:36.585Z,19.06
2022-09-04T08:54:25.852Z,19.16
2022-09-04T08:57:41.340Z,19.10
2022-09-04T09:00:40.464Z,18.98
2022-09-04T09:03:47.151Z,18.90
2022-09-04T09:06:39.270Z,19.05
2022-09-04T09:09:44.308Z,19.22
2022-09-04T09:12:58.485Z,19.21
2022-09-04T09:15:59.673Z,19.27
2022-09-04T09:18:57.550Z,19.35
2022-09-04T09:21:49.015Z,19.42
2022-09-04T09:24:53.794Z,19.38
2022-09-04T09:27:33.581Z,19.29
2022-09-04T09:30:08.946Z,19.31
2022-09-04T09:33:04.089Z,19.36
2022-09-04T09:35:41.642Z,19.40
2022-09-04T09:38:36.225Z,19.27
2022-09-04T09:41:09.421Z,19.21
2022-09-04T09:44:33.187Z,19.30
2022-09-04T09:47:57.659Z,19.41
2022-09-04T09:51:12.868Z,19.39
2022-09-04T09:54:10.102Z,19.41
2022-09-04T09:57:13.388Z,19.50
2022-09-04T10:00:05.628Z,19.41
2022-09-04T10:02:54.124Z,19.41
2022-09-04T10:05:40.173Z,19.47
2022-09-04T10:08:35.584Z,19.59
2022-09-04T10:11:28.510Z,19.67
2022-09-04T10:14:36.571Z,19.61
2022-09-04T10:17:28.261Z,19.48
2022-09-04T10:20:28.588Z,19.45
2022-09-04T10:23:05.379Z,19.47
2022-09-04T10:25:54.628Z,19.42
2022-09-04T10:29:09.731Z,19.35
2022-09-04T10:31:46.282Z,19.36
2022-09-04T10:34:34.496Z,19.50
2022-09-04T10:37:26.136Z,19.68
2022-09-04T10:40:39.712Z,19.90
2022-09-04T10:43:42.653Z,19.95
2022-09-04T10:46:20.691Z,19.96
2022-09-04T10:49:19.802Z,19.99
2022-09-04T10:52:37.307Z,20.15
2022-09-04T10:55:43.617Z,20.33
2022-09-04T10:58:29.855Z,20.44
2022-09-04T11:01:31.968Z,20.47
2022-09-04T11:04:13.597Z,20.40
2022-09-04T11:07:22.174Z,20.40
2022-09-04T11:10:20.272Z,20.46
2022-09-04T11:13:30.601Z,20.49
2022-09-04T11:16:32.264Z,20.34
2022-09-04T11:19:51.629Z,20.27
2022-09-04T11:23:09.573Z,20.29
2022-09-04T11:26:05.494Z,20.29
2022-09-04T11:28:52.665Z,20.25
2022-09-04T11:31:48.883Z,20.17
2022-09-04T11:34:58.740Z,20.14
2022-09-04T11:38:00.246Z,20.20
2022-09-04T11:41:07.382Z,20.28
2022-09-04T11:44:33.423Z,20.44
2022-09-04T11:47:20.463Z,20.59
2022-09-04T11:50:26.379Z,20.66
2022-09-04T11:53:13.614Z,20.74
2022-09-04T11:56:20.520Z,20.82
2022-09-04T11:59:45.489Z,20.72
2022-09-04T12:02:59.686Z,20.60
2022-09-04T12:06:46.274Z,20.50
2022-09-04T12:09:44.604Z,20.38
2022-09-04T12:12:47.211Z,20.29
2022-09-04T12:15:44.421Z,20.30
2022-09-04T12:18:54.327Z,20.39
2022-09-04T12:22:01.157Z,20.46
2022-09-04T12:25:06.358Z,20.50
2022-09-04T12:28:41.395Z,20.56
2022-09-04T12:31:54.163Z,20.74
2022-09-04T12:35:04.197Z,20.85
2022-09-04T12:38:08.423Z,20.76
2022-09-04T12:41:19.356Z,20.87
2022-09-04T12:44:08.717Z,20.86
2022-09-04T12:47:05.488Z,21.06
2022-09-04T12:50:22.202Z,21.01
2022-09-04T12:53:48.184Z,20.81
2022-09-04T12:56:29.886Z,20.83
2022-09-04T12:59:16.207Z,20.89
2022-09-04T13:01:59.058Z,20.98
2022-09-04T13:05:28.365Z,21.08
2022-09-04T13:08:18.651Z,21.21
2022-09-04T13:11:18.930Z,21.24
2022-09-04T13:14:10.837Z,21.30
2022-09-04T13:16:54.853Z,21.37
2022-09-04T13:20:00.334Z,21.34
2022-09-04T13:22:57.874Z,21.35
2022-09-04T13:25:35.854Z,21.33
2022-09-04T13:28:35.716Z,21.33
2022-09-04T13:31:50.403Z,21.39
2022-09-04T13:34:52.576Z,21.46
2022-09-04T13:38:16.637Z,21.54
2022-09-04T13:40:59.987Z,21.49
2022-09-04T13:43:55.570Z,21.41
2022-09-04T13:46:37.696Z,21.40
2022-09-04T13:49:35.596Z,21.35
2022-09-04T13:52:16.857Z,21.30
2022-09-04T13:54:52.327Z,21.25
2022-09-04T13:57:30.042Z,21.23
2022-09-04T14:00:03.828Z,21.18
2022-09-04T14:02:34.257Z,21.13
2022-09-04T14:05:13.017Z,21.10
2022-09-04T14:07:48.558Z,21.14
2022-09-04T14:11:16.998Z,21.10
2022-09-04T14:14:23.091Z,21.09
2022-09-04T14:16:54.460Z,21.05
2022-09-04T14:19:35.665Z,20.98
2022-09-04T14:22:33.689Z,21.00
2022-09-04T14:28:45.201Z,20.97
2022-09-04T14:30:29.445Z,21.02
2022-09-04T14:31:46.476Z,20.95
2022-09-04T14:34:27.362Z,20.95
2022-09-04T14:37:13.195Z,20.92
2022-09-04T14:40:25.430Z,20.87
2022-09-04T14:43:24.707Z,20.85
2022-09-04T14:46:42.853Z,20.83
2022-09-04T14:49:21.300Z,20.81
2022-09-04T14:51:56.167Z,20.79
2022-09-04T14:54:29.516Z,20.76
2022-09-04T14:57:28.906Z,20.74
2022-09-04T15:00:10.699Z,20.73
2022-09-04T15:03:12.078Z,20.73
2022-09-04T15:06:27.219Z,20.75
2022-09-04T15:09:16.743Z,20.73
2022-09-04T15:11:45.853Z,20.69
2022-09-04T15:14:33.924Z,20.71
2022-09-04T15:17:26.259Z,20.74
2022-09-04T15:20:13.177Z,20.74
2022-09-04T15:23:01.452Z,20.77
2022-09-04T15:26:00.863Z,20.77
2022-09-04T15:28:44.336Z,20.79
2022-09-04T15:31:31.414Z,20.79
2022-09-04T15:34:06.367Z,20.79
2022-09-04T15:36:38.765Z,20.79
2022-09-04T15:39:18.328Z,20.80
2022-09-04T15:41:49.547Z,20.75
2022-09-04T15:44:43.078Z,20.68
2022-09-04T15:47:58.498Z,20.63
2022-09-04T15:50:31.055Z,20.58
2022-09-04T15:53:14.675Z,20.55
2022-09-04T15:55:44.136Z,20.54
2022-09-04T15:58:32.078Z,20.49
2022-09-04T16:01:08.927Z,20.46
2022-09-04T16:03:46.860Z,20.47
2022-09-04T16:06:45.202Z,20.47
2022-09-04T16:09:20.941Z,20.48
2022-09-04T16:12:12.346Z,20.45
2022-09-04T16:14:53.285Z,20.41
2022-09-04T16:17:28.152Z,20.40
2022-09-04T16:20:14.694Z,20.41
2022-09-04T16:22:48.703Z,20.40
2022-09-04T16:25:19.252Z,20.35
2022-09-04T16:28:07.627Z,20.31
2022-09-04T16:30:55.616Z,20.29
2022-09-04T16:33:50.577Z,20.25
2022-09-04T16:36:25.160Z,20.21
2022-09-04T16:39:13.916Z,20.17
2022-09-04T16:42:11.872Z,20.14
2022-09-04T16:44:47.873Z,20.10
2022-09-04T16:47:35.952Z,20.06
2022-09-04T16:50:18.664Z,20.02
2022-09-04T16:53:13.905Z,19.98
2022-09-04T16:55:49.719Z,19.95
2022-09-04T16:58:29.946Z,19.92
2022-09-04T17:01:25.350Z,19.89
2022-09-04T17:04:16.970Z,19.86
2022-09-04T17:06:53.830Z,19.83
2022-09-04T17:09:38.195Z,19.79
2022-09-04T17:12:47.476Z,19.71
2022-09-04T17:15:57.677Z,19.61
2022-09-04T17:18:27.224Z,19.52
2022-09-04T17:26:28.097Z,19.45
2022-09-04T17:29:02.192Z,19.34
2022-09-04T17:29:22.447Z,19.25
2022-09-04T17:31:34.575Z,19.15
2022-09-04T17:40:32.264Z,19.07
2022-09-04T17:40:36.610Z,18.99
2022-09-04T17:41:36.267Z,18.88
2022-09-04T17:44:49.504Z,18.87
2022-09-04T17:47:45.954Z,18.82
2022-09-04T17:50:25.169Z,18.71
2022-09-04T17:53:17.715Z,18.76
2022-09-04T17:56:51.728Z,18.75
2022-09-04T17:59:45.820Z,18.73
2022-09-04T18:02:48.331Z,18.64
2022-09-04T18:05:53.529Z,18.66
2022-09-04T18:08:55.870Z,18.62
2022-09-04T18:11:29.997Z,18.55
2022-09-04T18:14:26.132Z,18.49
2022-09-04T18:17:25.725Z,18.41
2022-09-04T18:20:37.851Z,18.20
2022-09-04T18:23:46.400Z,18.19
2022-09-04T18:26:53.861Z,18.16
2022-09-04T18:32:55.697Z,18.08
2022-09-04T18:37:11.744Z,17.99
2022-09-04T18:37:19.449Z,17.90
2022-09-04T18:39:35.927Z,17.85
2022-09-04T18:50:22.853Z,17.79
2022-09-04T18:50:38.911Z,17.69
2022-09-04T18:50:45.517Z,17.73
2022-09-04T18:51:51.412Z,17.72
2022-09-04T18:54:41.479Z,17.71
2022-09-04T18:57:49.141Z,17.65
2022-09-04T19:01:03.789Z,17.69
2022-09-04T19:04:00.948Z,17.69
2022-09-04T19:07:06.872Z,17.69
2022-09-04T19:10:02.213Z,17.67
2022-09-04T19:16:22.039Z,17.61
2022-09-04T19:19:52.373Z,17.60
2022-09-04T19:23:06.212Z,17.62
2022-09-04T19:26:34.735Z,17.60
2022-09-04T19:29:44.001Z,17.61
2022-09-04T19:32:37.787Z,17.60
2022-09-04T19:35:19.694Z,17.55
2022-09-04T19:43:27.342Z,17.56
2022-09-04T19:46:01.158Z,17.45
2022-09-04T19:46:13.317Z,17.44
2022-09-04T19:53:17.607Z,17.41
2022-09-04T19:53:30.811Z,17.36
2022-09-04T19:56:29.277Z,17.32
2022-09-04T19:59:12.745Z,17.28
2022-09-04T20:02:03.088Z,17.21
2022-09-04T20:05:07.141Z,17.13
2022-09-04T20:08:26.204Z,17.02
2022-09-04T20:11:36.299Z,16.98
2022-09-04T20:14:38.283Z,16.92
2022-09-04T20:17:38.752Z,16.89
2022-09-04T20:20:23.409Z,16.88
2022-09-04T20:23:43.845Z,16.83
2022-09-04T20:26:31.994Z,16.72
2022-09-04T20:29:54.658Z,16.74
2022-09-04T20:32:28.691Z,16.69
2022-09-04T20:35:13.651Z,16.64
2022-09-04T20:38:03.107Z,16.57
2022-09-04T20:40:41.970Z,16.52
2022-09-04T20:43:36.094Z,16.49
2022-09-04T20:49:16.636Z,16.44
2022-09-04T20:52:55.268Z,16.42
2022-09-04T20:53:05.798Z,16.37
2022-09-04T20:55:19.463Z,16.35
2022-09-04T21:03:13.104Z,16.33
2022-09-04T21:03:24.516Z,16.31
2022-09-04T21:05:46.722Z,16.32
2022-09-04T21:08:24.123Z,16.32
2022-09-04T21:11:38.782Z,16.29
2022-09-04T21:14:01.143Z,16.24
2022-09-04T21:17:27.505Z,16.23
2022-09-04T21:20:13.694Z,16.21
2022-09-04T21:22:50.063Z,16.19
2022-09-04T21:25:54.532Z,16.16
2022-09-04T21:29:10.700Z,16.13
2022-09-04T21:32:27.313Z,16.05
2022-09-04T21:35:09.119Z,16.01
2022-09-04T21:37:40.042Z,15.97
2022-09-04T21:40:49.883Z,15.95
2022-09-04T21:43:50.248Z,15.94
2022-09-04T21:46:32.704Z,15.93
2022-09-04T21:49:09.813Z,15.91
2022-09-04T21:51:47.322Z,15.90
2022-09-04T21:57:08.937Z,15.86
2022-09-04T22:02:36.517Z,15.81
2022-09-04T22:02:39.337Z,15.79
2022-09-04T22:05:09.259Z,15.79
2022-09-04T22:13:28.896Z,15.77
2022-09-04T22:13:39.420Z,15.75
2022-09-04T22:14:35.237Z,15.75
2022-09-04T22:17:22.724Z,15.76
2022-09-04T22:20:28.019Z,15.77
2022-09-04T22:23:29.554Z,15.74
2022-09-04T22:26:30.371Z,15.72
2022-09-04T22:29:40.128Z,15.70
2022-09-04T22:32:20.465Z,15.67
2022-09-04T22:35:36.195Z,15.67
2022-09-04T22:38:54.228Z,15.65
2022-09-04T22:42:09.900Z,15.59
2022-09-04T22:44:50.441Z,15.53
2022-09-04T22:47:27.114Z,15.48
2022-09-04T22:50:50.423Z,15.51
2022-09-04T22:53:51.784Z,15.48
2022-09-04T22:56:40.196Z,15.47
2022-09-04T22:59:27.626Z,15.47
2022-09-04T23:03:07.101Z,15.47
2022-09-04T23:06:18.917Z,15.49
2022-09-04T23:13:44.861Z,15.52
2022-09-04T23:13:59.885Z,15.54
2022-09-04T23:15:48.745Z,15.55
2022-09-04T23:20:50.189Z,15.54
2022-09-04T23:26:47.558Z,15.52
2022-09-04T23:26:49.806Z,15.49
2022-09-04T23:28:34.701Z,15.50
2022-09-04T23:31:53.075Z,15.51
2022-09-04T23:35:26.880Z,15.46
2022-09-04T23:39:03.141Z,15.42
2022-09-04T23:42:11.180Z,15.37
2022-09-04T23:45:02.338Z,15.35
2022-09-04T23:48:09.371Z,15.30
2022-09-04T23:51:25.878Z,15.25
2022-09-04T23:54:25.232Z,15.23
2022-09-04T23:57:26.505Z,15.20
